Time;durP1;ratioP1;P1;durP2;ratioP2;P2;SDS_P1;SDS_P2;PMS_P1;PMS_P2;Temp;Humidity;BMP_temperature;BMP_pressure;BME280_temperature;BME280_humidity;BME280_pressure;Samples;Min_cycle;Max_cycle;Signal;HPM_P1;HPM_P2
2024/01/02 00:00:28;;;;;;;34.92;14.27;;;;;;;;;;1037371;28;20133;-65
2024/01/02 00:01:19;;;;;;;33.72;14.60;;;;;;;;;;1036968;28;20513;-66
2024/01/02 00:01:49;;;;;;;26.33;12.35;;;;;;;;;;1037899;28;23136;-65
2024/01/02 00:02:21;;;;;;;29.05;13.20;;;;;;;;;;1038283;28;20496;-64
2024/01/02 00:02:51;;;;;;;28.25;14.02;;;;;;;;;;1037330;28;20128;-64
2024/01/02 00:03:23;;;;;;;30.88;14.05;;;;;;;;;;1037332;28;20091;-64
2024/01/02 00:03:54;;;;;;;37.00;12.63;;;;;;;;;;1037692;28;20053;-65
2024/01/02 00:04:25;;;;;;;38.17;14.07;;;;;;;;;;1036253;28;20049;-64
2024/01/02 00:04:55;;;;;;;29.05;14.07;;;;;;;;;;1036973;28;20045;-65
2024/01/02 00:05:26;;;;;;;26.38;12.93;;;;;;;;;;1036423;28;20068;-63
2024/01/02 00:05:56;;;;;;;26.77;12.80;;;;;;;;;;1037567;28;20065;-64
2024/01/02 00:06:26;;;;;;;28.83;13.55;;;;;;;;;;1036728;28;20049;-65
2024/01/02 00:06:57;;;;;;;29.00;14.20;;;;;;;;;;1037494;28;20512;-65
2024/01/02 00:07:28;;;;;;;32.55;12.77;;;;;;;;;;1037525;28;20057;-65
2024/01/02 00:07:58;;;;;;;33.55;13.80;;;;;;;;;;1037710;28;20053;-65
2024/01/02 00:08:29;;;;;;;28.55;13.65;;;;;;;;;;1037225;28;20518;-65
2024/01/02 00:08:59;;;;;;;37.10;14.50;;;;;;;;;;1038088;28;20046;-65
2024/01/02 00:09:30;;;;;;;31.05;13.73;;;;;;;;;;1037468;28;20049;-65
2024/01/02 00:10:00;;;;;;;25.38;12.45;;;;;;;;;;1036756;28;20061;-65
2024/01/02 00:10:31;;;;;;;27.70;12.80;;;;;;;;;;1038299;28;20669;-65
2024/01/02 00:11:02;;;;;;;27.13;13.75;;;;;;;;;;1037170;28;20041;-64
2024/01/02 00:11:32;;;;;;;25.98;12.65;;;;;;;;;;1037199;28;20057;-64
2024/01/02 00:12:05;;;;;;;24.38;13.43;;;;;;;;;;1036799;28;20053;-64
2024/01/02 00:12:35;;;;;;;26.40;12.60;;;;;;;;;;1037134;28;20501;-64
2024/01/02 00:13:06;;;;;;;29.75;12.88;;;;;;;;;;1037922;28;20053;-64
2024/01/02 00:13:37;;;;;;;27.33;11.95;;;;;;;;;;1037541;28;20103;-64
2024/01/02 00:14:07;;;;;;;27.70;11.82;;;;;;;;;;1036861;28;20053;-65
2024/01/02 00:14:38;;;;;;;29.55;12.85;;;;;;;;;;1037265;28;20084;-65
2024/01/02 00:15:09;;;;;;;32.72;12.77;;;;;;;;;;1038138;28;20056;-65
2024/01/02 00:15:40;;;;;;;28.35;12.73;;;;;;;;;;1037336;28;20056;-65
2024/01/02 00:16:10;;;;;;;28.45;11.48;;;;;;;;;;1038321;28;20053;-65
2024/01/02 00:16:41;;;;;;;29.58;12.98;;;;;;;;;;1035265;28;20041;-64
2024/01/02 00:17:11;;;;;;;20.00;11.27;;;;;;;;;;1037728;28;20553;-65
2024/01/02 00:17:42;;;;;;;25.10;11.80;;;;;;;;;;1036075;28;20500;-65
2024/01/02 00:18:13;;;;;;;26.40;11.38;;;;;;;;;;1037735;28;20172;-64
2024/01/02 00:18:44;;;;;;;22.83;11.40;;;;;;;;;;1037083;28;20046;-64
2024/01/02 00:19:15;;;;;;;31.73;11.93;;;;;;;;;;1037463;28;20079;-65
2024/01/02 00:19:45;;;;;;;31.45;13.55;;;;;;;;;;1036697;28;20046;-65
2024/01/02 00:20:16;;;;;;;27.08;11.88;;;;;;;;;;1038620;28;20132;-64
2024/01/02 00:20:46;;;;;;;28.15;12.32;;;;;;;;;;1037972;28;20049;-64
2024/01/02 00:21:17;;;;;;;27.80;11.80;;;;;;;;;;1037683;28;20045;-64
2024/01/02 00:21:47;;;;;;;28.35;11.73;;;;;;;;;;1038237;28;20044;-63
2024/01/02 00:22:18;;;;;;;30.73;11.85;;;;;;;;;;1037756;28;20616;-64
2024/01/02 00:22:48;;;;;;;26.20;11.63;;;;;;;;;;1037934;28;20045;-64
2024/01/02 00:23:19;;;;;;;26.35;10.60;;;;;;;;;;1037922;28;20470;-65
2024/01/02 00:23:49;;;;;;;27.50;12.88;;;;;;;;;;1037614;28;20091;-65
2024/01/02 00:24:20;;;;;;;26.08;10.88;;;;;;;;;;1037207;28;20561;-64
2024/01/02 00:24:50;;;;;;;21.90;10.85;;;;;;;;;;1036970;28;20666;-64
2024/01/02 00:25:21;;;;;;;32.38;11.73;;;;;;;;;;1036794;28;20053;-63
2024/01/02 00:25:52;;;;;;;34.22;12.68;;;;;;;;;;1037554;28;20465;-65
2024/01/02 00:26:22;;;;;;;27.13;11.38;;;;;;;;;;1037675;28;20118;-64
2024/01/02 00:26:53;;;;;;;24.50;10.00;;;;;;;;;;1035551;28;20050;-64
2024/01/02 00:27:23;;;;;;;26.00;11.15;;;;;;;;;;1037956;28;20060;-65
2024/01/02 00:27:54;;;;;;;28.30;12.82;;;;;;;;;;1034362;28;20100;-64
2024/01/02 00:28:24;;;;;;;25.77;11.30;;;;;;;;;;1037737;28;20048;-65
2024/01/02 00:28:55;;;;;;;23.20;11.43;;;;;;;;;;1036524;28;20478;-65
2024/01/02 00:29:25;;;;;;;28.58;10.95;;;;;;;;;;1037717;28;20060;-65
2024/01/02 00:29:56;;;;;;;26.33;11.07;;;;;;;;;;1036935;28;20069;-64
2024/01/02 00:30:26;;;;;;;24.92;11.23;;;;;;;;;;1037308;28;20099;-64
2024/01/02 00:30:57;;;;;;;28.20;11.55;;;;;;;;;;1037781;28;20042;-64
2024/01/02 00:31:27;;;;;;;26.75;10.30;;;;;;;;;;1036886;28;20414;-64
2024/01/02 00:31:58;;;;;;;23.08;10.43;;;;;;;;;;1037005;28;20140;-65
2024/01/02 00:32:28;;;;;;;24.77;10.30;;;;;;;;;;1037522;28;20061;-65
2024/01/02 00:33:03;;;;;;;29.05;10.98;;;;;;;;;;1037087;28;20144;-64
2024/01/02 00:33:33;;;;;;;23.95;10.02;;;;;;;;;;1037395;28;20667;-65
2024/01/02 00:34:04;;;;;;;21.25;9.00;;;;;;;;;;1037526;28;20612;-64
2024/01/02 00:34:34;;;;;;;26.10;11.52;;;;;;;;;;1037174;28;20692;-64
2024/01/02 00:35:05;;;;;;;23.45;10.32;;;;;;;;;;1037672;28;20178;-64
2024/01/02 00:35:36;;;;;;;26.48;9.98;;;;;;;;;;1037312;28;20045;-65
2024/01/02 00:36:10;;;;;;;24.88;10.48;;;;;;;;;;1038021;28;20045;-65
2024/01/02 00:36:41;;;;;;;27.42;10.27;;;;;;;;;;1036613;28;20042;-65
2024/01/02 00:37:12;;;;;;;24.92;10.48;;;;;;;;;;1038046;28;20120;-64
2024/01/02 00:37:42;;;;;;;28.60;11.18;;;;;;;;;;1036006;28;20489;-64
2024/01/02 00:38:13;;;;;;;23.85;10.10;;;;;;;;;;1037319;28;20771;-64
2024/01/02 00:38:44;;;;;;;23.73;10.23;;;;;;;;;;1036775;28;20064;-64
2024/01/02 00:39:14;;;;;;;25.58;10.75;;;;;;;;;;1038232;28;20064;-66
2024/01/02 00:39:44;;;;;;;25.10;9.93;;;;;;;;;;1036022;28;20048;-64
2024/01/02 00:40:15;;;;;;;20.23;10.05;;;;;;;;;;1038074;28;20111;-66
2024/01/02 00:40:46;;;;;;;22.50;10.07;;;;;;;;;;1036705;28;20050;-64
2024/01/02 00:41:17;;;;;;;18.15;9.35;;;;;;;;;;1037396;28;20050;-64
2024/01/02 00:41:49;;;;;;;24.48;9.48;;;;;;;;;;1037299;28;20055;-64
2024/01/02 00:42:20;;;;;;;19.83;9.70;;;;;;;;;;1037777;28;20052;-64
2024/01/02 00:42:50;;;;;;;23.85;10.55;;;;;;;;;;1036265;28;20053;-64
2024/01/02 00:43:21;;;;;;;25.83;10.32;;;;;;;;;;1037568;28;20099;-63
2024/01/02 00:43:51;;;;;;;25.05;10.73;;;;;;;;;;1036551;28;20077;-64
2024/01/02 00:44:22;;;;;;;20.15;9.63;;;;;;;;;;1036442;28;20493;-63
2024/01/02 00:44:53;;;;;;;24.00;10.57;;;;;;;;;;1036239;28;20049;-66
2024/01/02 00:45:23;;;;;;;22.10;9.50;;;;;;;;;;1037800;28;21333;-64
2024/01/02 00:45:55;;;;;;;25.70;10.55;;;;;;;;;;1034460;28;20050;-64
2024/01/02 00:46:26;;;;;;;23.65;10.73;;;;;;;;;;1038331;28;20053;-64
2024/01/02 00:46:56;;;;;;;19.13;9.80;;;;;;;;;;1037621;28;20143;-64
2024/01/02 00:47:27;;;;;;;25.65;10.52;;;;;;;;;;1037342;28;20041;-64
2024/01/02 00:47:58;;;;;;;22.23;9.82;;;;;;;;;;1036749;28;20056;-64
2024/01/02 00:48:28;;;;;;;22.83;10.27;;;;;;;;;;1038495;28;20057;-65
2024/01/02 00:48:59;;;;;;;23.50;10.77;;;;;;;;;;1035521;28;20133;-64
2024/01/02 00:49:29;;;;;;;21.25;8.88;;;;;;;;;;1038169;28;20049;-64
2024/01/02 00:49:59;;;;;;;22.70;9.50;;;;;;;;;;1037211;28;20050;-65
2024/01/02 00:50:31;;;;;;;20.10;9.50;;;;;;;;;;1037544;28;21404;-65
2024/01/02 00:51:02;;;;;;;22.42;9.57;;;;;;;;;;1037464;28;20550;-63
2024/01/02 00:51:33;;;;;;;22.70;11.27;;;;;;;;;;1037470;28;20045;-66
2024/01/02 00:52:03;;;;;;;19.55;9.57;;;;;;;;;;1037731;28;20054;-64
2024/01/02 00:52:34;;;;;;;23.58;10.50;;;;;;;;;;1036517;28;20128;-63
2024/01/02 00:53:05;;;;;;;19.88;10.05;;;;;;;;;;1037356;28;20041;-64
2024/01/02 00:53:35;;;;;;;23.98;9.77;;;;;;;;;;1035612;28;20049;-65
2024/01/02 00:54:06;;;;;;;26.70;9.30;;;;;;;;;;1038479;28;20046;-65
2024/01/02 00:54:36;;;;;;;23.30;9.98;;;;;;;;;;1036876;28;20045;-63
2024/01/02 00:55:07;;;;;;;23.67;9.52;;;;;;;;;;1037796;28;20057;-66
2024/01/02 00:55:38;;;;;;;23.90;9.32;;;;;;;;;;1036534;28;20042;-65
2024/01/02 00:56:08;;;;;;;25.48;10.93;;;;;;;;;;1037161;28;20053;-64
2024/01/02 00:56:39;;;;;;;21.95;10.02;;;;;;;;;;1037921;28;20525;-64
2024/01/02 00:57:09;;;;;;;24.77;10.10;;;;;;;;;;1037091;28;20434;-65
2024/01/02 00:57:40;;;;;;;23.05;9.73;;;;;;;;;;1036625;28;20045;-65
2024/01/02 00:58:10;;;;;;;21.33;9.55;;;;;;;;;;1037316;28;20038;-65
2024/01/02 00:58:41;;;;;;;19.58;9.07;;;;;;;;;;1037410;28;20049;-65
2024/01/02 00:59:13;;;;;;;23.58;9.90;;;;;;;;;;1036329;28;20050;-63
2024/01/02 00:59:44;;;;;;;22.00;9.77;;;;;;;;;;1037942;28;20133;-64
2024/01/02 01:00:15;;;;;;;24.75;10.23;;;;;;;;;;1037338;28;20052;-65
2024/01/02 01:00:45;;;;;;;24.60;9.50;;;;;;;;;;1037798;28;20050;-64
2024/01/02 01:01:19;;;;;;;23.63;9.23;;;;;;;;;;1039350;28;20543;-65
2024/01/02 01:01:49;;;;;;;21.20;10.30;;;;;;;;;;1037350;28;20068;-65
2024/01/02 01:02:20;;;;;;;22.65;10.40;;;;;;;;;;1038371;28;20049;-64
2024/01/02 01:02:51;;;;;;;21.92;9.55;;;;;;;;;;1037411;28;20045;-64
2024/01/02 01:03:21;;;;;;;18.80;9.60;;;;;;;;;;1038083;28;20050;-65
2024/01/02 01:03:52;;;;;;;22.17;9.73;;;;;;;;;;1033631;28;20053;-64
2024/01/02 01:04:23;;;;;;;18.65;9.18;;;;;;;;;;1036428;28;20046;-64
2024/01/02 01:04:53;;;;;;;20.88;10.27;;;;;;;;;;1035949;28;20053;-65
2024/01/02 01:05:24;;;;;;;20.42;9.45;;;;;;;;;;1038110;28;20052;-65
2024/01/02 01:05:54;;;;;;;22.52;9.38;;;;;;;;;;1035735;28;20390;-64
2024/01/02 01:06:25;;;;;;;20.42;9.73;;;;;;;;;;1037425;28;20052;-63
2024/01/02 01:06:55;;;;;;;16.75;9.02;;;;;;;;;;1036680;28;20052;-65
2024/01/02 01:07:26;;;;;;;18.67;9.00;;;;;;;;;;1037346;28;20093;-65
2024/01/02 01:07:56;;;;;;;20.58;9.48;;;;;;;;;;1036268;28;20081;-64
2024/01/02 01:08:27;;;;;;;18.08;9.07;;;;;;;;;;1037292;28;20041;-65
2024/01/02 01:08:57;;;;;;;23.67;9.50;;;;;;;;;;1038234;28;20818;-64
2024/01/02 01:09:28;;;;;;;23.10;9.30;;;;;;;;;;1038873;28;20049;-65
2024/01/02 01:09:59;;;;;;;16.90;9.43;;;;;;;;;;1038547;28;20661;-66
2024/01/02 01:10:30;;;;;;;21.50;9.90;;;;;;;;;;1036947;28;20176;-65
2024/01/02 01:11:01;;;;;;;19.42;9.20;;;;;;;;;;1037945;28;20095;-65
2024/01/02 01:11:31;;;;;;;19.33;9.35;;;;;;;;;;1038222;28;20665;-65
2024/01/02 01:12:03;;;;;;;17.25;8.80;;;;;;;;;;1037658;28;20052;-65
2024/01/02 01:12:33;;;;;;;20.60;9.30;;;;;;;;;;1036883;28;20064;-64
2024/01/02 01:13:04;;;;;;;19.23;8.93;;;;;;;;;;1036203;28;20045;-64
2024/01/02 01:13:35;;;;;;;22.05;9.35;;;;;;;;;;1035854;28;20063;-65
2024/01/02 01:14:05;;;;;;;20.95;9.57;;;;;;;;;;1036645;28;20904;-64
2024/01/02 01:14:36;;;;;;;20.30;8.68;;;;;;;;;;1036383;28;20524;-65
2024/01/02 01:15:07;;;;;;;20.80;8.98;;;;;;;;;;1035869;28;20057;-65
2024/01/02 01:15:39;;;;;;;22.33;8.93;;;;;;;;;;1037102;28;20069;-63
2024/01/02 01:16:09;;;;;;;24.30;10.23;;;;;;;;;;1036162;28;20053;-64
2024/01/02 01:16:40;;;;;;;20.92;8.63;;;;;;;;;;1036112;28;20144;-65
2024/01/02 01:17:11;;;;;;;23.05;8.45;;;;;;;;;;1036071;28;20061;-65
2024/01/02 01:17:41;;;;;;;21.80;8.98;;;;;;;;;;1036454;28;20053;-64
2024/01/02 01:18:12;;;;;;;23.13;9.55;;;;;;;;;;1037426;28;20056;-66
2024/01/02 01:18:42;;;;;;;22.80;9.55;;;;;;;;;;1035326;28;20138;-64
2024/01/02 01:19:13;;;;;;;21.67;8.65;;;;;;;;;;1036687;28;22921;-64
2024/01/02 01:19:43;;;;;;;22.25;9.73;;;;;;;;;;1036701;28;20045;-66
2024/01/02 01:20:13;;;;;;;21.42;8.93;;;;;;;;;;1036633;28;20050;-65
2024/01/02 01:20:44;;;;;;;21.42;9.93;;;;;;;;;;1035673;28;20097;-64
2024/01/02 01:21:15;;;;;;;20.88;9.63;;;;;;;;;;1037145;28;20647;-65
2024/01/02 01:21:45;;;;;;;18.70;7.93;;;;;;;;;;1037670;28;20056;-65
2024/01/02 01:22:17;;;;;;;19.67;8.38;;;;;;;;;;1036994;28;20187;-65
2024/01/02 01:22:47;;;;;;;15.80;8.70;;;;;;;;;;1035740;28;20041;-65
2024/01/02 01:23:18;;;;;;;20.92;9.60;;;;;;;;;;1036406;28;20056;-65
2024/01/02 01:23:48;;;;;;;21.45;8.90;;;;;;;;;;1038624;28;20067;-65
2024/01/02 01:24:19;;;;;;;24.77;9.32;;;;;;;;;;1036467;28;23380;-65
2024/01/02 01:24:49;;;;;;;23.17;8.63;;;;;;;;;;1036063;28;20060;-64
2024/01/02 01:25:21;;;;;;;25.35;8.73;;;;;;;;;;1036178;28;20103;-64
2024/01/02 01:25:51;;;;;;;19.35;8.75;;;;;;;;;;1035804;28;20100;-64
2024/01/02 01:26:22;;;;;;;21.02;9.25;;;;;;;;;;1035867;28;20088;-64
2024/01/02 01:26:52;;;;;;;18.02;8.48;;;;;;;;;;1034343;28;20062;-64
2024/01/02 01:27:23;;;;;;;18.38;8.35;;;;;;;;;;1036941;28;20046;-64
2024/01/02 01:27:54;;;;;;;22.05;9.13;;;;;;;;;;1034939;28;20496;-65
2024/01/02 01:28:24;;;;;;;21.30;9.68;;;;;;;;;;1035660;28;20054;-64
2024/01/02 01:28:54;;;;;;;24.35;9.27;;;;;;;;;;1035815;28;20052;-64
2024/01/02 01:29:25;;;;;;;21.90;9.25;;;;;;;;;;1036002;28;20103;-65
2024/01/02 01:29:55;;;;;;;22.65;9.82;;;;;;;;;;1036003;28;20097;-64
2024/01/02 01:30:26;;;;;;;16.67;9.02;;;;;;;;;;1035963;28;20049;-65
2024/01/02 01:30:56;;;;;;;19.13;8.85;;;;;;;;;;1036663;28;20111;-64
2024/01/02 01:31:27;;;;;;;18.17;7.72;;;;;;;;;;1037369;28;20049;-64
2024/01/02 01:31:58;;;;;;;18.08;8.73;;;;;;;;;;1036479;28;20139;-64
2024/01/02 01:32:28;;;;;;;24.42;9.50;;;;;;;;;;1037219;28;20064;-63
2024/01/02 01:32:59;;;;;;;18.48;9.18;;;;;;;;;;1036882;28;20421;-65
2024/01/02 01:33:29;;;;;;;18.85;8.60;;;;;;;;;;1037434;28;20041;-64
2024/01/02 01:34:00;;;;;;;20.98;8.48;;;;;;;;;;1036184;28;20054;-65
2024/01/02 01:34:31;;;;;;;22.33;9.85;;;;;;;;;;1034707;28;20053;-65
2024/01/02 01:35:03;;;;;;;21.08;8.82;;;;;;;;;;1037531;28;20045;-64
2024/01/02 01:35:34;;;;;;;22.42;8.73;;;;;;;;;;1037293;28;20140;-64
2024/01/02 01:36:05;;;;;;;21.20;9.32;;;;;;;;;;1038605;28;20037;-63
2024/01/02 01:36:36;;;;;;;27.30;10.35;;;;;;;;;;1035349;28;20120;-64
2024/01/02 01:37:07;;;;;;;24.88;9.25;;;;;;;;;;1037013;28;20057;-64
2024/01/02 01:37:37;;;;;;;18.90;8.93;;;;;;;;;;1035930;28;20136;-64
2024/01/02 01:38:08;;;;;;;19.50;10.02;;;;;;;;;;1037080;28;20057;-64
2024/01/02 01:38:38;;;;;;;24.48;9.10;;;;;;;;;;1035650;28;20516;-64
2024/01/02 01:39:09;;;;;;;21.48;9.40;;;;;;;;;;1036363;28;20084;-65
2024/01/02 01:39:40;;;;;;;23.75;9.52;;;;;;;;;;1035647;28;20068;-63
2024/01/02 01:40:11;;;;;;;22.92;9.65;;;;;;;;;;1033933;28;20056;-64
2024/01/02 01:40:41;;;;;;;21.05;9.10;;;;;;;;;;1035484;28;20117;-64
2024/01/02 01:41:12;;;;;;;21.25;9.48;;;;;;;;;;1039461;28;20083;-64
2024/01/02 01:41:42;;;;;;;22.30;9.55;;;;;;;;;;1039585;28;20041;-64
2024/01/02 01:42:13;;;;;;;21.65;9.02;;;;;;;;;;1040274;28;20123;-65
2024/01/02 01:42:43;;;;;;;23.10;9.13;;;;;;;;;;1041181;28;21838;-64
2024/01/02 01:43:14;;;;;;;19.88;9.15;;;;;;;;;;1036481;28;20120;-64
2024/01/02 01:43:48;;;;;;;21.73;8.75;;;;;;;;;;1035244;28;20053;-65
2024/01/02 01:44:18;;;;;;;20.70;8.90;;;;;;;;;;1036211;28;20056;-64
2024/01/02 01:44:49;;;;;;;20.20;9.55;;;;;;;;;;1035752;28;20049;-64
2024/01/02 01:45:19;;;;;;;18.48;8.93;;;;;;;;;;1038072;28;20045;-64
2024/01/02 01:45:50;;;;;;;20.35;9.20;;;;;;;;;;1036013;28;20494;-63
2024/01/02 01:46:21;;;;;;;20.90;9.98;;;;;;;;;;1036586;28;20084;-65
2024/01/02 01:46:51;;;;;;;21.10;8.95;;;;;;;;;;1035907;28;20038;-65
2024/01/02 01:47:22;;;;;;;21.02;8.77;;;;;;;;;;1040562;28;20640;-65
2024/01/02 01:47:53;;;;;;;24.40;10.18;;;;;;;;;;1040580;28;20150;-64
2024/01/02 01:48:23;;;;;;;22.75;9.38;;;;;;;;;;1040999;28;20044;-64
2024/01/02 01:48:54;;;;;;;24.17;10.23;;;;;;;;;;1039755;28;20048;-63
2024/01/02 01:49:25;;;;;;;20.05;9.07;;;;;;;;;;1036981;28;20044;-64
2024/01/02 01:49:56;;;;;;;20.17;9.45;;;;;;;;;;1037193;28;20057;-64
2024/01/02 01:50:26;;;;;;;17.08;8.52;;;;;;;;;;1037000;28;20506;-64
2024/01/02 01:50:57;;;;;;;19.35;8.55;;;;;;;;;;1035821;28;20045;-64
2024/01/02 01:51:28;;;;;;;22.33;9.20;;;;;;;;;;1036771;28;20435;-64
2024/01/02 01:51:59;;;;;;;19.52;8.88;;;;;;;;;;1035759;28;20129;-64
2024/01/02 01:52:32;;;;;;;19.90;8.63;;;;;;;;;;1037570;28;20045;-64
2024/01/02 01:53:03;;;;;;;23.55;8.77;;;;;;;;;;1038428;28;20062;-64
2024/01/02 01:53:35;;;;;;;18.27;8.90;;;;;;;;;;1037906;28;20056;-64
2024/01/02 01:54:06;;;;;;;19.55;8.73;;;;;;;;;;1037326;28;20053;-63
2024/01/02 01:54:37;;;;;;;23.30;9.38;;;;;;;;;;1036029;28;20061;-63
2024/01/02 01:55:08;;;;;;;17.15;8.55;;;;;;;;;;1036356;28;20077;-65
2024/01/02 01:55:38;;;;;;;17.33;8.80;;;;;;;;;;1035663;28;20056;-63
2024/01/02 01:56:09;;;;;;;20.60;8.35;;;;;;;;;;1036283;28;20088;-63
2024/01/02 01:56:42;;;;;;;23.38;8.93;;;;;;;;;;1035781;28;20679;-65
2024/01/02 01:57:13;;;;;;;21.77;9.15;;;;;;;;;;1035815;28;20049;-64
2024/01/02 01:57:44;;;;;;;19.25;9.05;;;;;;;;;;1035276;28;20049;-64
2024/01/02 01:58:16;;;;;;;19.35;8.77;;;;;;;;;;1038060;28;20037;-64
2024/01/02 01:58:48;;;;;;;19.45;9.38;;;;;;;;;;1036452;28;20076;-65
2024/01/02 01:59:18;;;;;;;24.63;9.60;;;;;;;;;;1036549;28;20710;-64
2024/01/02 01:59:49;;;;;;;18.98;9.45;;;;;;;;;;1036509;28;20517;-64
2024/01/02 02:00:20;;;;;;;20.45;8.57;;;;;;;;;;1036750;28;20441;-64
2024/01/02 02:00:51;;;;;;;17.45;8.98;;;;;;;;;;1036171;28;20053;-65
2024/01/02 02:01:22;;;;;;;22.80;9.30;;;;;;;;;;1036915;28;20061;-65
2024/01/02 02:01:53;;;;;;;24.45;9.25;;;;;;;;;;1035534;28;20053;-64
2024/01/02 02:02:24;;;;;;;17.05;8.75;;;;;;;;;;1035291;28;20100;-64
2024/01/02 02:02:55;;;;;;;22.77;9.80;;;;;;;;;;1034978;28;20064;-65
2024/01/02 02:03:26;;;;;;;17.83;10.35;;;;;;;;;;1037326;28;20080;-64
2024/01/02 02:03:59;;;;;;;19.55;8.65;;;;;;;;;;1034965;28;20049;-65
2024/01/02 02:04:31;;;;;;;20.55;8.30;;;;;;;;;;1036115;28;20686;-64
2024/01/02 02:05:02;;;;;;;18.00;8.18;;;;;;;;;;1033948;28;20053;-65
2024/01/02 02:05:34;;;;;;;24.92;9.13;;;;;;;;;;1034388;28;20052;-64
2024/01/02 02:06:05;;;;;;;21.60;9.52;;;;;;;;;;1035852;28;20077;-65
2024/01/02 02:06:35;;;;;;;21.80;8.88;;;;;;;;;;1034735;28;20536;-65
2024/01/02 02:07:06;;;;;;;20.83;8.55;;;;;;;;;;1036680;28;20128;-65
2024/01/02 02:07:40;;;;;;;18.98;9.52;;;;;;;;;;1034804;28;20056;-64
2024/01/02 02:08:11;;;;;;;22.15;9.85;;;;;;;;;;1036384;28;20045;-63
2024/01/02 02:08:42;;;;;;;18.35;8.70;;;;;;;;;;1036560;28;20049;-65
2024/01/02 02:09:13;;;;;;;19.75;9.13;;;;;;;;;;1037338;28;20045;-65
2024/01/02 02:09:43;;;;;;;21.60;9.02;;;;;;;;;;1035350;28;20061;-64
2024/01/02 02:10:14;;;;;;;22.73;10.00;;;;;;;;;;1037768;28;20049;-65
2024/01/02 02:10:45;;;;;;;21.60;9.73;;;;;;;;;;1037805;28;20045;-64
2024/01/02 02:11:16;;;;;;;26.50;8.80;;;;;;;;;;1037132;28;20076;-65
2024/01/02 02:11:47;;;;;;;22.95;9.40;;;;;;;;;;1036959;28;20033;-63
2024/01/02 02:12:17;;;;;;;22.65;9.88;;;;;;;;;;1035511;28;20049;-65
2024/01/02 02:12:48;;;;;;;20.35;9.63;;;;;;;;;;1035775;28;20049;-63
2024/01/02 02:13:19;;;;;;;18.60;8.98;;;;;;;;;;1037015;28;20052;-64
2024/01/02 02:13:50;;;;;;;19.83;9.38;;;;;;;;;;1037364;28;20076;-64
2024/01/02 02:14:20;;;;;;;20.75;9.20;;;;;;;;;;1037867;28;20053;-65
2024/01/02 02:14:51;;;;;;;19.20;8.30;;;;;;;;;;1036530;28;20057;-65
2024/01/02 02:15:22;;;;;;;21.70;8.63;;;;;;;;;;1036078;28;20494;-65
2024/01/02 02:15:52;;;;;;;20.20;8.35;;;;;;;;;;1035913;28;20084;-64
2024/01/02 02:16:23;;;;;;;22.27;9.00;;;;;;;;;;1036779;28;20131;-63
2024/01/02 02:16:53;;;;;;;24.63;9.68;;;;;;;;;;1035660;28;20045;-64
2024/01/02 02:17:28;;;;;;;19.10;8.52;;;;;;;;;;1036063;28;20986;-65
2024/01/02 02:17:58;;;;;;;20.42;8.98;;;;;;;;;;1035709;28;20083;-64
2024/01/02 02:18:29;;;;;;;18.55;9.20;;;;;;;;;;1035987;28;20099;-64
2024/01/02 02:18:59;;;;;;;20.80;8.52;;;;;;;;;;1035404;28;20057;-64
2024/01/02 02:19:30;;;;;;;19.30;8.80;;;;;;;;;;1036118;28;20162;-65
2024/01/02 02:20:00;;;;;;;22.50;8.43;;;;;;;;;;1036412;28;20516;-64
2024/01/02 02:20:31;;;;;;;19.40;8.68;;;;;;;;;;1036596;28;20440;-65
2024/01/02 02:21:02;;;;;;;17.48;9.43;;;;;;;;;;1035902;28;20454;-64
2024/01/02 02:21:33;;;;;;;19.45;8.93;;;;;;;;;;1036355;28;20057;-65
2024/01/02 02:22:05;;;;;;;21.73;8.63;;;;;;;;;;1037533;28;20127;-64
2024/01/02 02:22:37;;;;;;;20.08;8.80;;;;;;;;;;1035413;28;20049;-64
2024/01/02 02:23:08;;;;;;;18.38;9.27;;;;;;;;;;1036191;28;20135;-66
2024/01/02 02:23:38;;;;;;;17.58;8.57;;;;;;;;;;1034909;28;20128;-65
2024/01/02 02:24:08;;;;;;;18.58;8.30;;;;;;;;;;1034954;28;20512;-65
2024/01/02 02:24:39;;;;;;;21.45;9.10;;;;;;;;;;1035925;28;20042;-64
2024/01/02 02:25:09;;;;;;;20.95;9.07;;;;;;;;;;1035708;28;20773;-64
2024/01/02 02:25:40;;;;;;;21.33;8.85;;;;;;;;;;1035905;28;20042;-64
2024/01/02 02:26:11;;;;;;;21.52;8.20;;;;;;;;;;1035767;28;20085;-63
2024/01/02 02:26:41;;;;;;;24.15;8.93;;;;;;;;;;1036217;28;20115;-65
2024/01/02 02:27:14;;;;;;;19.92;8.55;;;;;;;;;;1036557;28;20972;-64
2024/01/02 02:27:46;;;;;;;15.00;8.45;;;;;;;;;;1034826;28;20077;-64
2024/01/02 02:28:16;;;;;;;18.83;8.55;;;;;;;;;;1036488;28;20060;-63
2024/01/02 02:28:47;;;;;;;21.90;9.55;;;;;;;;;;1035698;28;20060;-64
2024/01/02 02:29:18;;;;;;;17.67;7.88;;;;;;;;;;1037572;28;20137;-63
2024/01/02 02:29:48;;;;;;;16.58;9.07;;;;;;;;;;1035524;28;20045;-65
2024/01/02 02:30:19;;;;;;;17.23;7.72;;;;;;;;;;1037254;28;20071;-65
2024/01/02 02:30:49;;;;;;;17.95;8.25;;;;;;;;;;1036827;28;20060;-64
2024/01/02 02:31:20;;;;;;;18.48;8.80;;;;;;;;;;1035631;28;20054;-64
2024/01/02 02:31:50;;;;;;;19.38;8.60;;;;;;;;;;1035273;28;20185;-67
2024/01/02 02:32:21;;;;;;;16.65;8.20;;;;;;;;;;1036004;28;20589;-65
2024/01/02 02:32:53;;;;;;;17.60;8.88;;;;;;;;;;1035495;28;20053;-65
2024/01/02 02:33:24;;;;;;;16.55;8.77;;;;;;;;;;1035388;28;20037;-63
2024/01/02 02:33:54;;;;;;;21.13;9.20;;;;;;;;;;1035006;28;20053;-65
2024/01/02 02:34:25;;;;;;;18.30;9.43;;;;;;;;;;1035520;28;23443;-64
2024/01/02 02:34:55;;;;;;;15.57;8.68;;;;;;;;;;1034901;28;20053;-64
2024/01/02 02:35:26;;;;;;;17.92;9.25;;;;;;;;;;1036146;28;20053;-65
2024/01/02 02:35:57;;;;;;;24.42;9.00;;;;;;;;;;1037943;28;20048;-64
2024/01/02 02:36:28;;;;;;;16.27;9.27;;;;;;;;;;1037411;28;20054;-64
2024/01/02 02:36:58;;;;;;;20.55;8.40;;;;;;;;;;1035821;28;20076;-64
2024/01/02 02:37:29;;;;;;;21.70;8.60;;;;;;;;;;1037439;28;20065;-64
2024/01/02 02:37:59;;;;;;;19.73;8.75;;;;;;;;;;1035508;28;20108;-63
2024/01/02 02:38:30;;;;;;;26.05;8.52;;;;;;;;;;1036045;28;20043;-65
2024/01/02 02:39:00;;;;;;;29.48;9.65;;;;;;;;;;1034844;28;20056;-64
2024/01/02 02:39:31;;;;;;;19.85;9.10;;;;;;;;;;1036137;28;20132;-64
2024/01/02 02:40:03;;;;;;;19.45;8.20;;;;;;;;;;1036161;28;20453;-65
2024/01/02 02:40:33;;;;;;;21.75;9.43;;;;;;;;;;1034911;28;20060;-62
2024/01/02 02:41:04;;;;;;;18.10;9.07;;;;;;;;;;1035267;28;20037;-65
2024/01/02 02:41:35;;;;;;;19.70;8.85;;;;;;;;;;1035519;28;20060;-63
2024/01/02 02:42:06;;;;;;;19.88;8.75;;;;;;;;;;1037066;28;20132;-64
2024/01/02 02:42:36;;;;;;;17.75;9.45;;;;;;;;;;1035418;28;21818;-64
2024/01/02 02:43:07;;;;;;;17.98;9.07;;;;;;;;;;1035222;28;20505;-65
2024/01/02 02:43:38;;;;;;;16.80;8.38;;;;;;;;;;1034715;28;20077;-64
2024/01/02 02:44:09;;;;;;;24.27;9.35;;;;;;;;;;1035109;28;20049;-64
2024/01/02 02:44:42;;;;;;;19.98;9.32;;;;;;;;;;1035885;28;20091;-63
2024/01/02 02:45:13;;;;;;;22.30;8.27;;;;;;;;;;1036327;28;20045;-64
2024/01/02 02:45:43;;;;;;;19.55;10.15;;;;;;;;;;1035706;28;20448;-65
2024/01/02 02:46:14;;;;;;;20.50;8.55;;;;;;;;;;1034998;28;20549;-63
2024/01/02 02:46:44;;;;;;;17.35;8.82;;;;;;;;;;1036331;28;20045;-64
2024/01/02 02:47:15;;;;;;;20.15;8.73;;;;;;;;;;1035361;28;20391;-63
2024/01/02 02:47:45;;;;;;;22.23;9.40;;;;;;;;;;1035602;28;20063;-65
2024/01/02 02:48:16;;;;;;;19.35;8.82;;;;;;;;;;1037569;28;20088;-64
2024/01/02 02:48:47;;;;;;;21.33;8.50;;;;;;;;;;1035688;28;20100;-64
2024/01/02 02:49:17;;;;;;;20.40;8.20;;;;;;;;;;1035751;28;20056;-65
2024/01/02 02:49:49;;;;;;;24.08;9.15;;;;;;;;;;1035799;28;20045;-64
2024/01/02 02:50:20;;;;;;;20.55;9.23;;;;;;;;;;1037102;28;20037;-64
2024/01/02 02:50:50;;;;;;;21.20;9.00;;;;;;;;;;1036696;28;20053;-64
2024/01/02 02:51:21;;;;;;;22.10;9.32;;;;;;;;;;1036915;28;20367;-64
2024/01/02 02:51:52;;;;;;;20.20;8.60;;;;;;;;;;1036473;28;20045;-64
2024/01/02 02:52:23;;;;;;;18.80;9.32;;;;;;;;;;1037198;28;20104;-63
2024/01/02 02:52:53;;;;;;;16.95;7.72;;;;;;;;;;1036086;28;20045;-64
2024/01/02 02:53:24;;;;;;;21.20;9.65;;;;;;;;;;997503;28;1044478;-63
2024/01/02 02:53:54;;;;;;;19.77;8.77;;;;;;;;;;1035518;28;20046;-63
2024/01/02 02:54:25;;;;;;;20.83;9.38;;;;;;;;;;1035669;28;20097;-64
2024/01/02 02:54:55;;;;;;;18.77;8.55;;;;;;;;;;1034405;28;20053;-63
2024/01/02 02:55:26;;;;;;;22.58;8.88;;;;;;;;;;1036999;28;20421;-66
2024/01/02 02:55:56;;;;;;;20.77;8.60;;;;;;;;;;1035320;28;20053;-64
2024/01/02 02:56:27;;;;;;;26.50;8.77;;;;;;;;;;1036162;28;20183;-65
2024/01/02 02:56:57;;;;;;;20.77;8.63;;;;;;;;;;1034659;28;20107;-64
2024/01/02 02:57:28;;;;;;;18.52;8.68;;;;;;;;;;1035526;28;20104;-63
2024/01/02 02:57:58;;;;;;;21.90;8.77;;;;;;;;;;1035467;28;20064;-64
2024/01/02 02:58:29;;;;;;;18.38;8.45;;;;;;;;;;1036952;28;20076;-63
2024/01/02 02:58:59;;;;;;;20.30;8.73;;;;;;;;;;1034655;28;20451;-64
2024/01/02 02:59:30;;;;;;;17.58;8.30;;;;;;;;;;1036170;28;20054;-64
2024/01/02 03:00:01;;;;;;;18.00;7.78;;;;;;;;;;1035175;28;20053;-64
2024/01/02 03:00:33;;;;;;;18.48;8.02;;;;;;;;;;1035964;28;20053;-64
2024/01/02 03:01:04;;;;;;;20.92;8.88;;;;;;;;;;1035071;28;20050;-64
2024/01/02 03:01:34;;;;;;;19.85;8.13;;;;;;;;;;1036461;28;20760;-64